createdAt,value
2018-07-24T00:02:28.478Z,5.90
2018-07-24T00:04:59.491Z,7.40
2018-07-24T00:07:30.471Z,7.57
2018-07-24T00:10:04.359Z,6.20
2018-07-24T00:12:35.369Z,7.83
2018-07-24T00:15:07.722Z,6.40
2018-07-24T00:17:38.536Z,7.63
2018-07-24T00:20:09.648Z,5.33
2018-07-24T00:22:41.549Z,6.80
2018-07-24T00:25:12.485Z,5.63
2018-07-24T00:27:43.468Z,7.03
2018-07-24T00:30:14.502Z,5.67
2018-07-24T00:32:45.553Z,7.90
2018-07-24T00:35:16.491Z,8.00
2018-07-24T00:37:47.473Z,7.77
2018-07-24T00:40:18.505Z,5.73
2018-07-24T00:42:49.464Z,8.00
2018-07-24T00:45:20.484Z,5.70
2018-07-24T00:47:51.474Z,7.50
2018-07-24T00:50:22.473Z,5.30
2018-07-24T00:52:53.473Z,7.47
2018-07-24T00:55:24.502Z,5.30
2018-07-24T00:57:55.673Z,5.93
2018-07-24T01:00:26.553Z,6.13
2018-07-24T01:02:57.481Z,6.10
2018-07-24T01:05:28.493Z,4.70
2018-07-24T01:07:59.476Z,5.70
2018-07-24T01:10:30.484Z,5.93
2018-07-24T01:13:01.464Z,5.93
2018-07-24T01:15:32.783Z,4.33
2018-07-24T01:18:03.708Z,6.27
2018-07-24T01:20:34.536Z,4.63
2018-07-24T01:23:05.503Z,5.90
2018-07-24T01:25:36.521Z,3.97
2018-07-24T01:28:07.440Z,7.20
2018-07-24T01:30:38.473Z,7.00
2018-07-24T01:33:09.464Z,5.20
2018-07-24T01:35:40.456Z,7.90
2018-07-24T01:38:11.677Z,5.57
2018-07-24T01:40:42.541Z,6.70
2018-07-24T01:43:13.485Z,5.23
2018-07-24T01:45:44.495Z,6.77
2018-07-24T01:48:15.489Z,5.10
2018-07-24T01:50:46.517Z,6.70
2018-07-24T01:53:17.468Z,4.70
2018-07-24T01:55:48.526Z,6.33
2018-07-24T01:58:19.462Z,4.60
2018-07-24T02:00:50.486Z,5.93
2018-07-24T02:03:21.428Z,6.67
2018-07-24T02:05:52.445Z,4.30
2018-07-24T02:08:23.477Z,6.07
2018-07-24T02:10:54.464Z,6.30
2018-07-24T02:13:25.469Z,4.80
2018-07-24T02:15:56.491Z,5.47
2018-07-24T02:18:27.624Z,6.30
2018-07-24T02:20:58.478Z,4.40
2018-07-24T02:23:29.485Z,6.43
2018-07-24T02:26:00.532Z,6.63
2018-07-24T02:28:31.470Z,6.30
2018-07-24T02:31:03.569Z,4.53
2018-07-24T02:33:34.478Z,5.33
2018-07-24T02:36:05.493Z,4.20
2018-07-24T02:38:36.461Z,5.53
2018-07-24T02:41:07.514Z,5.57
2018-07-24T02:43:38.485Z,6.00
2018-07-24T02:46:09.510Z,4.60
2018-07-24T02:48:40.493Z,6.23
2018-07-24T02:51:11.494Z,4.50
2018-07-24T02:53:42.461Z,5.93
2018-07-24T02:56:13.468Z,4.20
2018-07-24T02:58:44.473Z,6.13
2018-07-24T03:01:15.461Z,4.70
2018-07-24T03:03:46.491Z,6.47
2018-07-24T03:06:17.491Z,4.83
2018-07-24T03:08:48.509Z,6.50
2018-07-24T03:11:19.492Z,4.67
2018-07-24T03:13:50.462Z,6.00
2018-07-24T03:16:21.470Z,5.87
2018-07-24T03:18:52.472Z,6.40
2018-07-24T03:21:23.450Z,4.50
2018-07-24T03:23:54.412Z,6.27
2018-07-24T03:26:25.451Z,4.47
2018-07-24T03:28:56.485Z,6.77
2018-07-24T03:31:27.473Z,4.80
2018-07-24T03:33:58.471Z,6.57
2018-07-24T03:36:29.513Z,6.50
2018-07-24T03:39:00.524Z,6.77
2018-07-24T03:41:31.481Z,6.77
2018-07-24T03:44:02.466Z,6.80
2018-07-24T03:46:33.475Z,7.80
2018-07-24T03:49:04.519Z,5.40
2018-07-24T03:51:35.477Z,7.77
2018-07-24T03:54:06.508Z,7.77
2018-07-24T03:56:37.493Z,6.17
2018-07-24T03:59:08.459Z,7.77
2018-07-24T04:01:39.466Z,8.03
2018-07-24T04:04:10.477Z,7.77
2018-07-24T04:06:41.458Z,6.17
2018-07-24T04:09:13.021Z,7.63
2018-07-24T04:11:44.440Z,5.70
2018-07-24T04:14:15.526Z,7.80
2018-07-24T04:16:46.498Z,5.60
2018-07-24T04:19:17.506Z,6.47
2018-07-24T04:21:48.505Z,7.20
2018-07-24T04:24:19.473Z,7.37
2018-07-24T04:26:51.290Z,6.97
2018-07-24T04:29:22.374Z,5.73
2018-07-24T04:31:53.489Z,7.50
2018-07-24T04:34:24.472Z,6.20
2018-07-24T04:36:55.478Z,7.93
2018-07-24T04:39:26.461Z,7.87
2018-07-24T04:41:57.496Z,6.40
2018-07-24T04:44:28.497Z,7.90
2018-07-24T04:46:59.504Z,7.87
2018-07-24T04:49:30.517Z,5.80
2018-07-24T04:52:01.439Z,7.87
2018-07-24T04:54:32.532Z,7.67
2018-07-24T04:57:03.526Z,7.47
2018-07-24T04:59:34.633Z,7.67
2018-07-24T05:02:05.465Z,7.10
2018-07-24T05:04:36.506Z,8.20
2018-07-24T05:07:07.554Z,7.27
2018-07-24T05:09:38.551Z,7.30
2018-07-24T05:12:09.483Z,6.87
2018-07-24T05:14:40.485Z,5.63
2018-07-24T05:17:11.506Z,6.70
2018-07-24T05:19:42.486Z,7.07
2018-07-24T05:22:13.495Z,5.50
2018-07-24T05:24:44.530Z,7.23
2018-07-24T05:27:16.302Z,6.80
2018-07-24T05:29:47.585Z,7.00
2018-07-24T05:32:18.628Z,6.47
2018-07-24T05:34:49.482Z,5.40
2018-07-24T05:37:20.485Z,6.73
2018-07-24T05:39:51.485Z,5.07
2018-07-24T05:42:22.578Z,6.93
2018-07-24T05:44:53.479Z,6.50
2018-07-24T05:47:24.476Z,5.83
2018-07-24T05:49:55.483Z,6.17
2018-07-24T05:52:26.484Z,6.00
2018-07-24T05:54:57.523Z,5.70
2018-07-24T05:57:28.493Z,6.30
2018-07-24T05:59:59.501Z,5.93
2018-07-24T06:02:30.509Z,5.93
2018-07-24T06:05:01.489Z,5.43
2018-07-24T06:07:32.517Z,5.17
2018-07-24T06:10:03.501Z,4.23
2018-07-24T06:12:34.469Z,5.80
2018-07-24T06:15:06.445Z,5.47
2018-07-24T06:17:37.488Z,4.90
2018-07-24T06:20:10.678Z,4.00
2018-07-24T06:22:41.545Z,6.00
2018-07-24T06:25:12.517Z,4.13
2018-07-24T06:27:43.482Z,5.77
2018-07-24T06:30:14.503Z,4.30
2018-07-24T06:32:45.497Z,4.80
2018-07-24T06:35:16.494Z,5.90
2018-07-24T06:37:47.498Z,5.23
2018-07-24T06:40:18.487Z,5.13
2018-07-24T06:42:49.497Z,5.10
2018-07-24T06:47:56.616Z,5.90
2018-07-24T06:50:27.465Z,4.00
2018-07-24T06:52:58.510Z,5.20
2018-07-24T06:55:29.481Z,4.17
2018-07-24T06:58:00.512Z,4.90
2018-07-24T07:00:31.521Z,4.97
2018-07-24T07:03:02.514Z,5.50
2018-07-24T07:05:33.536Z,3.70
2018-07-24T07:08:04.498Z,5.17
2018-07-24T07:10:35.481Z,5.30
2018-07-24T07:13:06.660Z,4.90
2018-07-24T07:15:37.698Z,4.40
2018-07-24T07:18:08.602Z,4.90
2018-07-24T07:20:39.592Z,3.97
2018-07-24T07:23:10.476Z,4.67
2018-07-24T07:25:41.481Z,4.43
2018-07-24T07:28:12.483Z,5.00
2018-07-24T07:30:43.473Z,3.90
2018-07-24T07:33:14.473Z,4.70
2018-07-24T07:35:45.481Z,4.03
2018-07-24T07:38:16.485Z,5.00
2018-07-24T07:40:47.565Z,4.90
2018-07-24T07:43:18.572Z,4.10
2018-07-24T07:45:49.437Z,4.90
2018-07-24T07:48:20.485Z,4.00
2018-07-24T07:50:51.481Z,4.90
2018-07-24T07:53:22.507Z,3.90
2018-07-24T07:55:53.468Z,4.80
2018-07-24T07:58:24.468Z,4.57
2018-07-24T08:00:55.486Z,5.27
2018-07-24T08:03:26.502Z,4.23
2018-07-24T08:05:57.478Z,5.47
2018-07-24T08:08:28.488Z,4.03
2018-07-24T08:10:59.483Z,5.07
2018-07-24T08:13:30.514Z,3.73
2018-07-24T08:16:01.477Z,5.30
2018-07-24T08:18:32.496Z,3.70
2018-07-24T08:21:03.481Z,5.10
2018-07-24T08:23:34.523Z,4.17
2018-07-24T08:26:05.510Z,5.07
2018-07-24T08:28:36.513Z,4.20
2018-07-24T08:31:07.550Z,6.03
2018-07-24T08:33:38.493Z,4.30
2018-07-24T08:36:09.492Z,5.70
2018-07-24T08:38:40.473Z,4.43
2018-07-24T08:41:11.463Z,6.17
2018-07-24T08:43:42.501Z,4.43
2018-07-24T08:46:13.493Z,5.57
2018-07-24T08:48:44.501Z,4.37
2018-07-24T08:51:15.489Z,4.87
2018-07-24T08:53:47.090Z,4.50
2018-07-24T08:56:17.504Z,5.70
2018-07-24T08:58:48.505Z,4.20
2018-07-24T09:01:19.477Z,5.27
2018-07-24T09:03:50.575Z,4.30
2018-07-24T09:06:21.597Z,3.83
2018-07-24T09:08:52.616Z,5.30
2018-07-24T09:11:23.449Z,4.30
2018-07-24T09:13:54.509Z,4.37
2018-07-24T09:16:25.662Z,4.43
2018-07-24T09:18:56.554Z,4.90
2018-07-24T09:21:27.509Z,4.00
2018-07-24T09:23:58.555Z,4.83
2018-07-24T09:26:29.588Z,4.00
2018-07-24T09:29:00.607Z,4.00
2018-07-24T09:31:31.586Z,3.70
2018-07-24T09:34:02.501Z,3.60
2018-07-24T09:36:33.474Z,4.40
2018-07-24T09:39:06.634Z,3.67
2018-07-24T09:41:38.004Z,4.43
2018-07-24T09:44:09.382Z,3.67
2018-07-24T09:46:40.511Z,3.60
2018-07-24T09:49:11.510Z,4.10
2018-07-24T09:51:42.484Z,3.60
2018-07-24T09:54:13.531Z,3.10
2018-07-24T09:56:44.526Z,4.20
2018-07-24T09:59:15.489Z,3.00
2018-07-24T10:01:46.474Z,3.30
2018-07-24T10:04:17.503Z,2.80
2018-07-24T10:06:48.545Z,2.97
2018-07-24T10:09:19.506Z,3.73
2018-07-24T10:11:50.505Z,2.70
2018-07-24T10:14:21.485Z,2.80
2018-07-24T10:16:52.541Z,2.90
2018-07-24T10:19:23.492Z,3.10
2018-07-24T10:21:54.504Z,3.07
2018-07-24T10:24:25.594Z,3.67
2018-07-24T10:26:56.577Z,2.70
2018-07-24T10:29:27.467Z,3.53
2018-07-24T10:31:58.484Z,2.80
2018-07-24T10:34:29.621Z,3.17
2018-07-24T10:37:00.465Z,2.93
2018-07-24T10:39:31.473Z,3.10
2018-07-24T10:42:02.482Z,3.30
2018-07-24T10:44:33.474Z,3.37
2018-07-24T10:47:04.476Z,3.80
2018-07-24T10:49:35.512Z,3.13
2018-07-24T10:52:06.552Z,3.80
2018-07-24T10:54:37.502Z,2.80
2018-07-24T10:57:08.418Z,3.20
2018-07-24T10:59:39.515Z,4.03
2018-07-24T11:02:10.499Z,3.10
2018-07-24T11:04:41.479Z,2.97
2018-07-24T11:07:12.537Z,3.27
2018-07-24T11:09:43.542Z,3.00
2018-07-24T11:12:14.502Z,3.10
2018-07-24T11:14:45.521Z,3.00
2018-07-24T11:17:16.542Z,3.60
2018-07-24T11:19:47.522Z,3.50
2018-07-24T11:22:18.618Z,3.63
2018-07-24T11:24:49.611Z,4.00
2018-07-24T11:27:20.715Z,3.60
2018-07-24T11:29:51.609Z,3.47
2018-07-24T11:32:22.477Z,3.17
2018-07-24T11:34:53.509Z,3.67
2018-07-24T11:37:24.531Z,3.20
2018-07-24T11:39:55.510Z,3.40
2018-07-24T11:42:26.669Z,2.80
2018-07-24T11:44:57.682Z,3.97
2018-07-24T11:47:28.550Z,2.90
2018-07-24T11:49:59.502Z,3.40
2018-07-24T11:52:30.634Z,3.63
2018-07-24T11:55:01.639Z,3.10
2018-07-24T11:57:32.554Z,3.00
2018-07-24T12:00:03.570Z,2.93
2018-07-24T12:02:34.530Z,3.40
2018-07-24T12:05:05.609Z,3.60
2018-07-24T12:07:36.553Z,2.93
2018-07-24T12:10:08.005Z,3.80
2018-07-24T12:12:39.258Z,3.27
2018-07-24T12:15:10.448Z,3.07
2018-07-24T12:17:41.415Z,3.07
2018-07-24T12:20:12.526Z,3.57
2018-07-24T12:22:43.497Z,2.80
2018-07-24T12:25:14.535Z,3.10
2018-07-24T12:27:45.489Z,2.87
2018-07-24T12:30:16.478Z,2.87
2018-07-24T12:32:47.470Z,3.40
2018-07-24T12:35:18.546Z,3.30
2018-07-24T12:37:49.517Z,3.00
2018-07-24T12:40:20.548Z,2.90
2018-07-24T12:42:51.530Z,3.03
2018-07-24T12:45:22.519Z,3.10
2018-07-24T12:47:53.550Z,2.87
2018-07-24T12:50:24.498Z,3.20
2018-07-24T12:52:55.545Z,2.87
2018-07-24T12:55:26.522Z,3.10
2018-07-24T12:57:57.733Z,3.50
2018-07-24T13:00:28.554Z,3.10
2018-07-24T13:02:59.491Z,4.23
2018-07-24T13:05:30.603Z,3.07
2018-07-24T13:08:01.598Z,3.17
2018-07-24T13:10:32.503Z,3.10
2018-07-24T13:13:03.530Z,3.17
2018-07-24T13:15:34.562Z,3.40
2018-07-24T13:18:05.542Z,3.20
2018-07-24T13:20:36.513Z,3.60
2018-07-24T13:23:07.560Z,3.17
2018-07-24T13:25:38.541Z,3.53
2018-07-24T13:28:09.529Z,2.97
2018-07-24T13:30:40.538Z,3.53
2018-07-24T13:33:12.549Z,3.43
2018-07-24T13:35:43.542Z,4.07
2018-07-24T13:38:14.614Z,3.53
2018-07-24T13:40:45.685Z,3.57
2018-07-24T13:43:16.617Z,3.73
2018-07-24T13:45:47.533Z,4.00
2018-07-24T13:48:18.558Z,3.40
2018-07-24T13:50:49.596Z,3.13
2018-07-24T13:53:20.586Z,3.27
2018-07-24T13:55:51.609Z,3.10
2018-07-24T13:58:22.587Z,3.60
2018-07-24T14:00:53.580Z,3.10
2018-07-24T14:03:24.601Z,3.30
2018-07-24T14:05:55.599Z,3.00
2018-07-24T14:08:26.638Z,3.37
2018-07-24T14:10:57.665Z,3.30
2018-07-24T14:13:34.462Z,3.57
2018-07-24T14:16:05.534Z,3.63
2018-07-24T14:18:36.567Z,3.23
2018-07-24T14:21:07.417Z,3.07
2018-07-24T14:23:38.611Z,8.43
2018-07-24T14:26:09.714Z,3.10
2018-07-24T14:28:40.568Z,2.97
2018-07-24T14:31:11.605Z,3.40
2018-07-24T14:33:42.486Z,3.10
2018-07-24T14:36:13.489Z,3.17
2018-07-24T14:38:44.528Z,3.60
2018-07-24T14:41:15.588Z,3.30
2018-07-24T14:43:46.530Z,3.07
2018-07-24T14:46:17.570Z,3.07
2018-07-24T14:48:48.509Z,3.10
2018-07-24T14:51:19.543Z,3.20
2018-07-24T14:53:50.533Z,2.93
2018-07-24T14:56:21.514Z,3.30
2018-07-24T14:58:52.640Z,3.40
2018-07-24T15:01:23.553Z,3.40
2018-07-24T15:03:54.505Z,3.63
2018-07-24T15:06:25.557Z,3.40
2018-07-24T15:08:56.827Z,3.40
2018-07-24T15:13:58.402Z,3.17
2018-07-24T15:16:29.586Z,4.47
2018-07-24T15:19:00.514Z,3.23
2018-07-24T15:21:31.522Z,3.30
2018-07-24T15:24:02.534Z,3.17
2018-07-24T15:26:33.554Z,3.40
2018-07-24T15:29:04.542Z,3.27
2018-07-24T15:31:35.557Z,4.67
2018-07-24T15:34:06.596Z,3.23
2018-07-24T15:36:37.557Z,3.57
2018-07-24T15:39:13.385Z,3.90
2018-07-24T15:41:45.200Z,3.43
2018-07-24T15:44:16.567Z,3.40
2018-07-24T15:46:47.568Z,4.23
2018-07-24T15:49:18.505Z,3.40
2018-07-24T15:51:49.545Z,3.30
2018-07-24T15:54:20.518Z,4.10
2018-07-24T15:56:51.501Z,8.90
2018-07-24T15:59:22.461Z,4.50
2018-07-24T16:01:53.492Z,4.10
2018-07-24T16:04:24.493Z,3.60
2018-07-24T16:06:55.551Z,4.33
2018-07-24T16:09:26.488Z,3.67
2018-07-24T16:11:57.510Z,4.17
2018-07-24T16:14:28.629Z,3.40
2018-07-24T16:17:01.244Z,4.47
2018-07-24T16:19:32.394Z,3.60
2018-07-24T16:22:03.573Z,4.10
2018-07-24T16:24:34.521Z,3.50
2018-07-24T16:27:05.630Z,4.03
2018-07-24T16:29:36.610Z,3.80
2018-07-24T16:32:07.599Z,3.63
2018-07-24T16:34:38.567Z,3.63
2018-07-24T16:37:09.615Z,3.67
2018-07-24T16:39:40.526Z,3.60
2018-07-24T16:42:11.565Z,4.00
2018-07-24T16:44:42.578Z,3.30
2018-07-24T16:47:13.590Z,4.20
2018-07-24T16:49:44.601Z,3.50
2018-07-24T16:52:15.549Z,4.20
2018-07-24T16:54:46.813Z,3.70
2018-07-24T16:57:18.244Z,4.70
2018-07-24T16:59:49.428Z,3.60
2018-07-24T17:02:20.611Z,4.60
2018-07-24T17:04:51.565Z,3.50
2018-07-24T17:07:22.537Z,4.93
2018-07-24T17:09:53.594Z,3.57
2018-07-24T17:12:24.574Z,4.70
2018-07-24T17:14:55.617Z,3.70
2018-07-24T17:17:26.509Z,4.30
2018-07-24T17:19:57.538Z,3.60
2018-07-24T17:22:28.543Z,4.80
2018-07-24T17:24:59.496Z,3.70
2018-07-24T17:27:30.603Z,4.53
2018-07-24T17:30:01.534Z,3.53
2018-07-24T17:32:32.551Z,4.67
2018-07-24T17:35:03.689Z,3.93
2018-07-24T17:37:34.635Z,4.77
2018-07-24T17:40:05.676Z,3.50
2018-07-24T17:42:36.633Z,4.47
2018-07-24T17:45:07.640Z,4.33
2018-07-24T17:47:39.029Z,4.53
2018-07-24T17:50:10.301Z,3.87
2018-07-24T17:52:41.440Z,4.10
2018-07-24T17:55:12.506Z,4.53
2018-07-24T17:57:43.525Z,3.83
2018-07-24T18:00:14.566Z,4.73
2018-07-24T18:02:45.535Z,4.03
2018-07-24T18:05:16.560Z,3.70
2018-07-24T18:07:47.575Z,5.33
2018-07-24T18:10:18.626Z,4.00
2018-07-24T18:12:49.592Z,3.80
2018-07-24T18:15:20.585Z,4.10
2018-07-24T18:17:51.541Z,4.70
2018-07-24T18:20:22.489Z,3.63
2018-07-24T18:22:53.623Z,3.87
2018-07-24T18:25:24.581Z,5.23
2018-07-24T18:27:56.633Z,4.00
2018-07-24T18:30:27.487Z,5.30
2018-07-24T18:32:58.558Z,3.77
2018-07-24T18:35:29.546Z,5.03
2018-07-24T18:38:00.591Z,3.90
2018-07-24T18:40:31.549Z,5.20
2018-07-24T18:43:02.589Z,3.83
2018-07-24T18:45:33.656Z,5.40
2018-07-24T18:48:04.683Z,3.57
2018-07-24T18:50:35.610Z,5.10
2018-07-24T18:53:06.647Z,4.70
2018-07-24T18:55:37.661Z,5.43
2018-07-24T18:58:08.646Z,4.30
2018-07-24T19:00:39.657Z,5.90
2018-07-24T19:03:10.673Z,4.50
2018-07-24T19:05:41.682Z,5.63
2018-07-24T19:08:12.730Z,4.30
2018-07-24T19:10:43.680Z,4.63
2018-07-24T19:13:14.622Z,5.73
2018-07-24T19:15:45.562Z,4.30
2018-07-24T19:18:16.558Z,5.50
2018-07-24T19:20:47.636Z,4.30
2018-07-24T19:23:18.595Z,5.13
2018-07-24T19:25:49.668Z,4.27
2018-07-24T19:28:20.616Z,4.93
2018-07-24T19:30:51.594Z,4.10
2018-07-24T19:33:22.543Z,4.27
2018-07-24T19:35:53.580Z,4.33
2018-07-24T19:38:24.537Z,5.03
2018-07-24T19:40:55.567Z,3.77
2018-07-24T19:43:26.517Z,4.20
2018-07-24T19:45:57.502Z,3.97
2018-07-24T19:48:28.508Z,4.10
2018-07-24T19:50:59.534Z,5.67
2018-07-24T19:53:30.518Z,4.53
2018-07-24T19:56:01.661Z,5.87
2018-07-24T19:58:32.573Z,4.90
2018-07-24T20:01:03.535Z,5.60
2018-07-24T20:03:34.593Z,4.30
2018-07-24T20:06:05.519Z,5.57
2018-07-24T20:08:36.505Z,4.23
2018-07-24T20:11:07.549Z,4.30
2018-07-24T20:13:38.523Z,4.23
2018-07-24T20:16:12.515Z,5.13
2018-07-24T20:18:43.816Z,4.00
2018-07-24T20:23:45.472Z,3.93
2018-07-24T20:26:16.546Z,4.70
2018-07-24T20:28:47.655Z,4.10
2018-07-24T20:31:18.679Z,4.97
2018-07-24T20:33:49.622Z,8.47
2018-07-24T20:36:20.484Z,5.60
2018-07-24T20:38:51.500Z,6.60
2018-07-24T20:41:22.508Z,5.20
2018-07-24T20:43:53.529Z,6.43
2018-07-24T20:46:24.549Z,4.97
2018-07-24T20:48:55.490Z,6.57
2018-07-24T20:51:26.500Z,5.10
2018-07-24T20:53:57.484Z,6.17
2018-07-24T20:56:29.295Z,4.87
2018-07-24T20:59:00.529Z,5.90
2018-07-24T21:01:31.498Z,5.00
2018-07-24T21:04:02.489Z,6.43
2018-07-24T21:06:33.657Z,4.63
2018-07-24T21:09:07.521Z,6.27
2018-07-24T21:11:39.526Z,4.40
2018-07-24T21:14:11.234Z,6.10
2018-07-24T21:16:42.371Z,4.60
2018-07-24T21:19:13.488Z,6.30
2018-07-24T21:21:44.541Z,4.67
2018-07-24T21:24:15.593Z,6.37
2018-07-24T21:26:46.527Z,5.27
2018-07-24T21:29:18.529Z,7.00
2018-07-24T21:31:49.548Z,4.70
2018-07-24T21:34:20.529Z,5.97
2018-07-24T21:36:51.549Z,4.73
2018-07-24T21:39:22.499Z,6.40
2018-07-24T21:41:53.513Z,4.97
2018-07-24T21:44:24.530Z,6.63
2018-07-24T21:46:55.525Z,5.07
2018-07-24T21:49:26.529Z,6.90
2018-07-24T21:51:57.537Z,5.20
2018-07-24T21:54:28.544Z,7.03
2018-07-24T21:56:59.545Z,5.77
2018-07-24T21:59:30.546Z,7.23
2018-07-24T22:02:01.583Z,5.20
2018-07-24T22:04:32.563Z,6.93
2018-07-24T22:07:03.501Z,6.07
2018-07-24T22:09:34.574Z,7.90
2018-07-24T22:12:05.582Z,5.90
2018-07-24T22:14:36.556Z,8.60
2018-07-24T22:17:07.531Z,6.23
2018-07-24T22:19:38.543Z,8.37
2018-07-24T22:22:09.562Z,6.23
2018-07-24T22:24:40.597Z,8.00
2018-07-24T22:27:11.545Z,7.07
2018-07-24T22:29:42.526Z,8.27
2018-07-24T22:32:13.477Z,6.60
2018-07-24T22:34:44.513Z,8.37
2018-07-24T22:37:15.466Z,6.90
2018-07-24T22:39:46.492Z,8.10
2018-07-24T22:42:17.496Z,6.60
2018-07-24T22:44:48.512Z,6.97
2018-07-24T22:47:19.506Z,8.73
2018-07-24T22:49:50.758Z,7.10
2018-07-24T22:52:21.653Z,8.23
2018-07-24T22:54:52.726Z,5.60
2018-07-24T22:57:23.698Z,8.67
2018-07-24T22:59:54.643Z,6.90
2018-07-24T23:02:25.492Z,7.90
2018-07-24T23:04:56.551Z,6.40
2018-07-24T23:07:27.481Z,7.87
2018-07-24T23:09:58.558Z,6.20
2018-07-24T23:12:30.525Z,5.93
2018-07-24T23:15:01.587Z,7.80
2018-07-24T23:17:32.577Z,5.93
2018-07-24T23:20:03.607Z,6.87
2018-07-24T23:22:34.599Z,5.50
2018-07-24T23:25:05.595Z,7.13
2018-07-24T23:27:36.567Z,5.67
2018-07-24T23:30:07.602Z,7.37
2018-07-24T23:32:38.555Z,5.53
2018-07-24T23:37:42.335Z,5.50
2018-07-24T23:40:13.348Z,7.67
2018-07-24T23:42:44.356Z,6.07
2018-07-24T23:45:15.382Z,8.20
2018-07-24T23:47:46.489Z,6.67
2018-07-24T23:50:17.506Z,7.70
2018-07-24T23:52:48.486Z,5.87
2018-07-24T23:55:19.543Z,7.67
2018-07-24T23:57:50.518Z,6.50
